AirNav   Air Wisconsin pilot careers
 
 1473 users online  

63Y Tyler Municipal Airport
Tyler, Minnesota, USA


FAA INFORMATION EFFECTIVE 09 NOVEMBER 2017

Location

FAA Identifier: 63Y
Lat/Long: 44-17-29.8780N / 096-09-01.1210W
44-17.497967N / 096-09.018683W
44.2916328 / -96.1503114
(estimated)
Elevation: 1742 ft. / 531 m (estimated)
Variation: 06E (1985)
From city: 1 mile NW of TYLER, MN
Time zone: UTC -6 (UTC -5 during Daylight Saving Time)
Zip code: 56178

Airport Operations

Airport use: Open to the public
Activation date: 12/1947
Control tower: no
ARTCC: MINNEAPOLIS CENTER
FSS: PRINCETON FLIGHT SERVICE STATION
NOTAMs facility: PNM (NOTAM-D service available)
Attendance: UNATNDD
Wind indicator: lighted
Segmented circle: no
Lights: SS-SR
Beacon: white-green (lighted land airport)
Operates sunset to sunrise.

Airport Communications

CTAF: 122.9
WX AWOS-3PT at MML (17 nm NE): 111.0 (507-532-5269)
WX AWOS-3 at PQN (20 nm S): 118.375 (507-825-6895)

Nearby radio navigation aids

VOR radial/distance  VOR name  Freq  Var
MMLr231/16.8MARSHALL VOR/DME111.0005E

Airport Services

Parking: tiedowns
Airframe service: NONE
Powerplant service: NONE
Bottled oxygen: NONE
Bulk oxygen: NONE

Runway Information

Runway 14/32

Dimensions: 2600 x 160 ft. / 792 x 49 m
Surface: turf, in fair condition
RY 14/32 SOME BARE SPOTS AND DEPRESSIONS, ANIMAL HOLES
Runway edge lights: low intensity
Runway edge markings: RY 14/32 MKD WITH YELLOW CONES.
RUNWAY 14  RUNWAY 32
Latitude: 44-17.484167N44-17.128333N
Longitude: 096-09.221000W096-08.933000W
Elevation: 1742.0 ft.1742.0 ft.
Traffic pattern: leftleft
Markings: nonenone
Runway end identifier lights: nono

Airport Ownership and Management from official FAA records

Ownership: Publicly-owned
Owner: CITY OF TYLER
230 N TYLER ST
TYLER, MN 56178
Phone 507-247-5556
Manager: ROBERT WOLFINGTON III
CITY OF TYLER, 230 N TYLER ST.
TYLER, MN 56178
Phone 507-247-5556

Airport Operational Statistics

Aircraft based on the field: 4
Single engine airplanes: 4
    
Aircraft operations: avg 42/week *
73% local general aviation
27% transient general aviation
* for 12-month period ending 30 April 2016

Additional Remarks

CFM SNOW REMOVAL & WINTER CONDS WITH AMGR FM 0800-1700 LCL, CALL 504-247-5556.

Instrument Procedures

There are no published instrument procedures at 63Y.

Some nearby airports with instrument procedures:

KMML - Southwest Minnesota Regional Airport - Marshall/Ryan Field (17 nm NE)
KPQN - Pipestone Municipal Airport (20 nm S)
KTKC - Tracy Municipal Airport (23 nm E)
KDVP - Slayton Municipal Airport (24 nm SE)
KCNB - Myers Field Airport (27 nm N)
 
Loc | Ops | Rwys | IFR | FBO | Links
Com | Nav | Svcs | Stats | Notes


 
Area around 63Y (Tyler Municipal Airport)
 
Road maps at: MapQuest Bing Google
 
Aerial photo
WARNING: Photo may not be current or correct
Aerial photo of 63Y (Tyler Municipal Airport)
Photo by Thomas W. Young
Photo taken 27-Aug-2005
view to the north

Do you have a better or more recent aerial photo of Tyler Municipal Airport that you would like to share? If so, please send us your photo.

 
Sectional chart

 
Airport distance calculator
Flying to Tyler Municipal Airport? Find the distance to fly.

From to 63Y

Sunrise and sunset
Times for 17-Nov-2017
 Local
(UTC-6)
 Zulu
(UTC)
Morning civil twilight06:5312:53
Sunrise07:2413:24
Sunset16:5522:55
Evening civil twilight17:2723:27

Current date and time
Zulu (UTC)  17-Nov-2017 19:33:38
Local (UTC-6)  17-Nov-2017 13:33:38
 
METAR
KMML 
17nm NE 
171856Z AUTO 02008KT 10SM -RA BKN100 07/01 A2959 RMK AO2 RAB49 SLP032 P0000 T00670011
KPQN 
21nm S 
171914Z AUTO 04007KT 10SM -RA SCT070 07/02 A2957 RMK AO2
KTKC 
23nm E 
171859Z AUTO 35009KT 10SM BKN110 07/03 A2959 RMK AO2
KDVP 
24nm SE 
171919Z AUTO 34010KT 10SM SCT021 SCT085 07/03 A2959 RMK AO2 T00710025
4P3 
26nm SW 
SuperAWOS
171855Z AUTO 02006KT 10SM 07/01 A2961
KCNB 
27nm N 
171915Z AUTO 35011KT 10SM CLR 07/00 A2961 RMK AO2 T00660003
KBKX 
29nm W 
171856Z AUTO 01006KT 10SM BKN075 OVC100 07/02 A2958 RMK AO2 RAE05 SLP042 P0000 T00670017
TAF
KRWF 
48nm E 
171739Z 1718/1818 19004KT P6SM OVC080 FM172000 34005KT P6SM VCSH OVC130 FM172100 34004KT P6SM OVC100 FM180000 34008KT P6SM BKN060 FM180200 34007KT P6SM OVC035 FM180600 33010KT P6SM OVC050 FM181300 32010KT P6SM SCT200
KFSD 
50nm SW 
171722Z 1718/1818 34009KT P6SM OVC110 FM180100 36011KT P6SM SCT030 OVC035 FM180500 33011KT P6SM VCSH BKN060 FM181100 33011KT P6SM SCT140 FM181700 32014G24KT P6SM FEW150
NOTAMs
Click for the latest NOTAMs
NOTAMs are issued by the DoD/FAA and will open in a separate window not controlled by AirNav.

 

 
 

Would you like to see your business listed on this page?

 If your business provides an interesting product or service to pilots, flight crews, aircraft, or users of the Tyler Municipal Airport, you should consider listing it here.  To start the listing process, click on the button below
 
Add a business
 

Other Pages about Tyler Municipal Airport

PDF page(s) from the Minnesota Airport Directory
 
Update a link
 
Copyright © AirNav, LLC. All rights reserved. Privacy Policy  Contact